Time;durP1;ratioP1;P1;durP2;ratioP2;P2;SDS_P1;SDS_P2;PMS_P1;PMS_P2;Temp;Humidity;BMP_temperature;BMP_pressure;BME280_temperature;BME280_humidity;BME280_pressure;Samples;Min_cycle;Max_cycle;Signal;HPM_P1;HPM_P2
2021/11/14 00:01:06;;;;;;;1.50;0.43;;;14.30;96.70;;;;;;4999971;28;20060;-76
2021/11/14 00:03:35;;;;;;;1.83;0.45;;;14.30;96.70;;;;;;5003787;28;20137;-76
2021/11/14 00:06:05;;;;;;;1.88;0.70;;;14.40;96.70;;;;;;5004792;28;20041;-76
2021/11/14 00:08:34;;;;;;;3.17;0.60;;;14.40;96.70;;;;;;5000876;28;20060;-76
2021/11/14 00:11:09;;;;;;;3.28;0.68;;;14.40;96.70;;;;;;5017975;28;20133;-76
2021/11/14 00:13:39;;;;;;;4.55;0.90;;;14.30;96.70;;;;;;5001393;28;20456;-76
2021/11/14 00:16:10;;;;;;;1.20;0.55;;;14.30;96.70;;;;;;5002051;28;20038;-76
2021/11/14 00:18:40;;;;;;;1.77;0.43;;;14.30;96.70;;;;;;5002074;28;20503;-76
2021/11/14 00:21:09;;;;;;;2.95;0.50;;;14.30;96.70;;;;;;4988465;28;20593;-76
2021/11/14 00:23:38;;;;;;;1.77;0.30;;;14.20;96.70;;;;;;4999556;28;20041;-75
2021/11/14 00:26:08;;;;;;;1.38;0.47;;;14.30;96.70;;;;;;5002502;28;20037;-76
2021/11/14 00:28:39;;;;;;;1.25;0.30;;;14.40;96.70;;;;;;5000297;28;20037;-76
2021/11/14 00:31:12;;;;;;;1.83;0.40;;;14.30;96.70;;;;;;4999780;28;20046;-76
2021/11/14 00:33:43;;;;;;;0.93;0.20;;;14.30;96.70;;;;;;4982971;28;20060;-77
2021/11/14 00:36:13;;;;;;;1.00;0.40;;;14.20;96.70;;;;;;5001637;28;20148;-76
2021/11/14 00:38:42;;;;;;;2.40;0.40;;;14.20;96.70;;;;;;5001353;28;20077;-76
2021/11/14 00:41:12;;;;;;;1.50;0.45;;;14.20;96.70;;;;;;5003257;28;20515;-76
2021/11/14 00:43:42;;;;;;;2.05;0.43;;;14.20;96.70;;;;;;4984619;28;20141;-76
2021/11/14 00:46:10;;;;;;;1.83;0.63;;;14.20;96.70;;;;;;5002849;28;20045;-74
2021/11/14 00:48:42;;;;;;;1.92;0.40;;;14.20;96.70;;;;;;5001929;28;20042;-76
2021/11/14 00:51:11;;;;;;;0.55;0.20;;;14.10;96.70;;;;;;4985493;28;20042;-76
2021/11/14 00:53:40;;;;;;;0.80;0.25;;;14.00;96.70;;;;;;5013436;28;20057;-76
2021/11/14 00:56:08;;;;;;;0.88;0.30;;;14.00;96.70;;;;;;5000569;28;20060;-75
2021/11/14 00:58:38;;;;;;;1.27;0.47;;;14.00;96.70;;;;;;4983063;28;20579;-75
2021/11/14 01:01:06;;;;;;;1.13;0.20;;;14.00;96.70;;;;;;4997420;28;20042;-76
2021/11/14 01:03:35;;;;;;;1.00;0.20;;;14.10;96.70;;;;;;4998073;28;20046;-75
2021/11/14 01:06:03;;;;;;;0.98;0.20;;;14.20;96.70;;;;;;4999920;28;20067;-75
2021/11/14 01:08:31;;;;;;;1.25;0.20;;;14.20;96.70;;;;;;5000149;28;20037;-76
2021/11/14 01:11:04;;;;;;;0.32;0.13;;;14.20;96.70;;;;;;5000389;28;20034;-76
2021/11/14 01:13:34;;;;;;;1.98;0.30;;;14.20;96.70;;;;;;5004919;28;20495;-76
2021/11/14 01:16:06;;;;;;;1.02;0.25;;;14.20;96.70;;;;;;5001923;28;20388;-76
2021/11/14 01:18:35;;;;;;;1.45;0.28;;;14.10;96.70;;;;;;4999485;28;20484;-76
2021/11/14 01:21:06;;;;;;;1.40;0.40;;;14.20;96.70;;;;;;4998150;28;20050;-76
2021/11/14 01:23:35;;;;;;;0.95;0.20;;;14.10;96.70;;;;;;4997278;28;20076;-75
2021/11/14 01:26:03;;;;;;;0.73;0.38;;;14.10;96.70;;;;;;4985374;28;20050;-76
2021/11/14 01:28:32;;;;;;;0.98;0.20;;;14.10;96.70;;;;;;4999843;28;20046;-76
2021/11/14 01:31:01;;;;;;;1.67;0.30;;;14.00;96.70;;;;;;4999174;28;20041;-76
2021/11/14 01:33:31;;;;;;;1.45;0.20;;;13.80;96.70;;;;;;5015619;28;20050;-75
2021/11/14 01:36:00;;;;;;;2.50;0.40;;;13.80;96.70;;;;;;5000115;28;20107;-76
2021/11/14 01:38:28;;;;;;;1.00;0.20;;;13.70;96.70;;;;;;4997556;28;20145;-76
2021/11/14 01:40:59;;;;;;;1.67;0.25;;;13.70;96.70;;;;;;4993716;28;20282;-77
2021/11/14 01:43:31;;;;;;;2.20;0.30;;;13.70;96.70;;;;;;5000868;28;20071;-76
2021/11/14 01:46:00;;;;;;;1.23;0.32;;;13.60;96.70;;;;;;4997061;28;20062;-76
2021/11/14 01:48:30;;;;;;;0.65;0.40;;;13.50;96.70;;;;;;5001317;28;20048;-76
2021/11/14 01:50:59;;;;;;;0.80;0.30;;;13.40;96.70;;;;;;4996424;28;20080;-77
2021/11/14 01:53:28;;;;;;;1.40;0.20;;;13.40;96.70;;;;;;5002631;28;20400;-75
2021/11/14 01:55:56;;;;;;;0.88;0.20;;;13.50;96.70;;;;;;4995933;28;20152;-76
2021/11/14 01:58:27;;;;;;;2.03;0.35;;;13.50;96.70;;;;;;5000902;28;20061;-76
2021/11/14 02:00:58;;;;;;;1.60;0.40;;;13.50;96.70;;;;;;4995715;28;21002;-76
2021/11/14 02:03:29;;;;;;;0.38;0.20;;;13.60;96.70;;;;;;5004534;28;20566;-76
2021/11/14 02:06:00;;;;;;;0.45;0.20;;;13.60;96.70;;;;;;5005323;28;20062;-76
2021/11/14 02:08:28;;;;;;;1.02;0.35;;;13.60;96.70;;;;;;5001193;28;20542;-76
2021/11/14 02:10:57;;;;;;;0.70;0.20;;;13.70;96.70;;;;;;5003740;28;20613;-76
2021/11/14 02:13:26;;;;;;;1.75;0.38;;;13.70;96.70;;;;;;5004174;28;20176;-76
2021/11/14 02:15:54;;;;;;;0.50;0.25;;;13.80;96.70;;;;;;5018892;28;20692;-76
2021/11/14 02:18:23;;;;;;;1.25;0.35;;;13.80;96.70;;;;;;4986646;28;20145;-76
2021/11/14 02:20:53;;;;;;;1.20;0.40;;;13.80;96.70;;;;;;5021640;28;20069;-76
2021/11/14 02:23:23;;;;;;;1.80;0.45;;;13.90;96.70;;;;;;5005195;28;20117;-75
2021/11/14 02:25:53;;;;;;;1.33;0.30;;;13.90;96.70;;;;;;5003775;28;20471;-75
2021/11/14 02:28:23;;;;;;;1.38;0.30;;;14.00;96.70;;;;;;5003700;28;20092;-76
2021/11/14 02:30:53;;;;;;;0.55;0.20;;;14.10;96.70;;;;;;5013207;28;20131;-76
2021/11/14 02:33:22;;;;;;;3.03;0.52;;;14.00;96.70;;;;;;5000077;28;20042;-75
2021/11/14 02:35:53;;;;;;;0.68;0.40;;;14.00;96.70;;;;;;5002607;28;20048;-76
2021/11/14 02:38:21;;;;;;;0.32;0.22;;;13.90;96.70;;;;;;5001413;28;20077;-76
2021/11/14 02:40:50;;;;;;;0.88;0.50;;;14.00;96.70;;;;;;4986228;28;20066;-76
2021/11/14 02:43:20;;;;;;;0.80;0.40;;;13.90;96.70;;;;;;4985036;28;20439;-75
2021/11/14 02:45:48;;;;;;;2.30;0.50;;;13.90;96.70;;;;;;4986109;28;20038;-75
2021/11/14 02:48:18;;;;;;;0.68;0.20;;;13.90;96.70;;;;;;5000303;28;20097;-75
2021/11/14 02:50:49;;;;;;;2.50;0.60;;;13.90;96.70;;;;;;5005031;28;20448;-76
2021/11/14 02:53:19;;;;;;;1.40;0.30;;;13.90;96.70;;;;;;5003482;28;20050;-76
2021/11/14 02:55:48;;;;;;;1.00;0.20;;;13.90;96.70;;;;;;4989638;28;20049;-76
2021/11/14 02:58:17;;;;;;;0.68;0.35;;;13.90;96.70;;;;;;5003052;28;20451;-75
2021/11/14 03:00:49;;;;;;;0.68;0.20;;;13.80;96.70;;;;;;5002524;28;20115;-76
2021/11/14 03:03:18;;;;;;;1.33;0.98;;;13.80;96.70;;;;;;5006331;28;20443;-76
2021/11/14 03:05:46;;;;;;;1.45;0.45;;;13.80;96.70;;;;;;4999774;28;20837;-76
2021/11/14 03:08:15;;;;;;;1.10;0.35;;;13.80;96.70;;;;;;5003341;28;20387;-76
2021/11/14 03:10:45;;;;;;;0.70;0.30;;;13.80;96.70;;;;;;5004364;28;20160;-75
2021/11/14 03:13:16;;;;;;;1.52;0.50;;;13.90;96.70;;;;;;5019827;28;20050;-76
2021/11/14 03:15:47;;;;;;;1.27;0.57;;;13.80;96.70;;;;;;5002663;28;20046;-75
2021/11/14 03:18:16;;;;;;;2.20;0.70;;;13.80;96.70;;;;;;5001899;28;20570;-76
2021/11/14 03:20:47;;;;;;;0.85;0.40;;;13.80;96.70;;;;;;5002828;28;20296;-76
2021/11/14 03:23:16;;;;;;;2.55;0.40;;;13.80;96.70;;;;;;5006700;28;20037;-76
2021/11/14 03:25:46;;;;;;;0.65;0.30;;;13.70;96.70;;;;;;4999927;28;20034;-76
2021/11/14 03:28:15;;;;;;;1.58;0.40;;;13.70;96.70;;;;;;5007159;28;20038;-75
2021/11/14 03:30:43;;;;;;;0.57;0.40;;;13.70;96.70;;;;;;5002283;28;20046;-75
2021/11/14 03:33:14;;;;;;;1.20;0.40;;;13.70;96.70;;;;;;5003243;28;20124;-76
2021/11/14 03:35:49;;;;;;;1.10;0.30;;;13.80;96.70;;;;;;4999254;28;20503;-76
2021/11/14 03:38:20;;;;;;;1.08;0.40;;;13.80;96.70;;;;;;4982906;28;20042;-76
2021/11/14 03:40:50;;;;;;;0.70;0.52;;;13.90;96.70;;;;;;5001959;28;20144;-77
2021/11/14 03:43:19;;;;;;;0.73;0.30;;;13.90;96.70;;;;;;5003572;28;20369;-77
2021/11/14 03:45:47;;;;;;;1.50;0.50;;;13.80;96.70;;;;;;4984900;28;20301;-77
2021/11/14 03:48:16;;;;;;;3.38;1.63;;;13.80;96.70;;;;;;5001529;28;20054;-77
2021/11/14 03:50:44;;;;;;;1.10;0.40;;;13.70;96.70;;;;;;5003379;28;20050;-78
2021/11/14 03:53:12;;;;;;;1.63;0.60;;;13.70;96.70;;;;;;5001330;28;20046;-77
2021/11/14 03:55:41;;;;;;;1.33;0.55;;;13.60;96.70;;;;;;5003371;28;20574;-76
2021/11/14 03:58:11;;;;;;;1.45;0.40;;;13.60;96.70;;;;;;4986566;28;20404;-77
2021/11/14 04:00:43;;;;;;;0.45;0.30;;;13.60;96.70;;;;;;4996564;28;20128;-76
2021/11/14 04:03:12;;;;;;;1.52;0.30;;;13.60;96.70;;;;;;5001985;28;20121;-77
2021/11/14 04:05:44;;;;;;;2.33;0.50;;;13.60;96.70;;;;;;4999175;28;20069;-76
2021/11/14 04:08:15;;;;;;;0.68;0.30;;;13.60;96.70;;;;;;5001672;28;20305;-76
2021/11/14 04:10:45;;;;;;;0.75;0.40;;;13.60;96.70;;;;;;5007656;28;20039;-76
2021/11/14 04:13:16;;;;;;;1.05;0.40;;;13.60;96.70;;;;;;5000072;28;20046;-76
2021/11/14 04:15:45;;;;;;;1.85;0.60;;;13.60;96.70;;;;;;4985870;28;20050;-76
2021/11/14 04:18:15;;;;;;;1.70;0.30;;;13.50;96.70;;;;;;5003704;28;20054;-75
2021/11/14 04:20:45;;;;;;;1.10;0.32;;;13.60;96.70;;;;;;5001875;28;20050;-76
2021/11/14 04:23:13;;;;;;;0.70;0.20;;;13.60;96.70;;;;;;5004698;28;20046;-76
2021/11/14 04:25:42;;;;;;;2.08;0.30;;;13.60;96.70;;;;;;4997454;28;20087;-76
2021/11/14 04:28:12;;;;;;;0.95;0.35;;;13.60;96.70;;;;;;5002873;28;20392;-76
2021/11/14 04:30:43;;;;;;;0.80;0.30;;;13.60;96.70;;;;;;5001094;28;20060;-76
2021/11/14 04:33:13;;;;;;;1.33;0.30;;;13.60;96.70;;;;;;5000159;28;20068;-75
2021/11/14 04:35:42;;;;;;;0.75;0.43;;;13.60;96.70;;;;;;4998562;28;20034;-76
2021/11/14 04:38:10;;;;;;;0.38;0.17;;;13.60;96.70;;;;;;4984094;28;20099;-76
2021/11/14 04:40:42;;;;;;;1.02;0.40;;;13.60;96.70;;;;;;4998982;28;20399;-76
2021/11/14 04:43:12;;;;;;;0.45;0.30;;;13.60;96.70;;;;;;4998456;28;20042;-76
2021/11/14 04:45:42;;;;;;;0.70;0.30;;;13.60;96.70;;;;;;5003890;28;20050;-76
2021/11/14 04:48:12;;;;;;;1.95;0.70;;;13.60;96.70;;;;;;5000652;28;20076;-76
2021/11/14 04:50:40;;;;;;;0.98;0.38;;;13.60;96.70;;;;;;4999801;28;20452;-77
2021/11/14 04:53:08;;;;;;;1.38;0.82;;;13.60;96.70;;;;;;4997809;28;20428;-76
2021/11/14 04:55:38;;;;;;;1.50;0.50;;;13.70;96.70;;;;;;5001446;28;20065;-77
2021/11/14 04:58:07;;;;;;;1.45;0.30;;;13.60;96.70;;;;;;4998450;28;20061;-73
2021/11/14 05:00:37;;;;;;;1.08;0.35;;;13.60;96.70;;;;;;5001816;28;20504;-75
2021/11/14 05:03:07;;;;;;;0.65;0.30;;;13.70;96.70;;;;;;5002826;28;20053;-75
2021/11/14 05:05:37;;;;;;;0.98;0.45;;;13.60;96.70;;;;;;4999462;28;20057;-74
2021/11/14 05:08:05;;;;;;;1.20;0.20;;;13.60;96.70;;;;;;4994350;28;20053;-75
2021/11/14 05:10:34;;;;;;;1.90;0.47;;;13.40;96.70;;;;;;5001116;28;20064;-75
2021/11/14 05:13:02;;;;;;;0.85;0.30;;;13.40;96.70;;;;;;4998248;28;20046;-74
2021/11/14 05:15:32;;;;;;;0.45;0.20;;;13.40;96.70;;;;;;4999572;28;20144;-75
2021/11/14 05:18:00;;;;;;;1.05;0.30;;;13.40;96.70;;;;;;5000832;28;20038;-75
2021/11/14 05:20:34;;;;;;;1.10;0.40;;;13.40;96.70;;;;;;4999917;28;20655;-75
2021/11/14 05:23:03;;;;;;;0.43;0.20;;;13.40;96.70;;;;;;4999945;28;20062;-75
2021/11/14 05:25:32;;;;;;;2.15;0.30;;;13.50;96.70;;;;;;5002187;28;20503;-75
2021/11/14 05:28:01;;;;;;;1.42;0.60;;;13.60;96.70;;;;;;5003041;28;20052;-74
2021/11/14 05:30:29;;;;;;;0.70;0.25;;;13.50;96.70;;;;;;5000840;28;20404;-75
2021/11/14 05:32:58;;;;;;;1.40;0.40;;;13.40;96.70;;;;;;5011929;28;20050;-75
2021/11/14 05:35:27;;;;;;;2.25;0.55;;;13.40;96.70;;;;;;5000936;28;20071;-75
2021/11/14 05:37:56;;;;;;;1.60;0.73;;;13.50;96.70;;;;;;5000187;28;20049;-74
2021/11/14 05:40:25;;;;;;;1.50;0.80;;;13.40;96.70;;;;;;5000100;28;20104;-74
2021/11/14 05:42:54;;;;;;;2.05;1.38;;;13.30;96.70;;;;;;5002121;28;20048;-75
2021/11/14 05:45:22;;;;;;;1.67;0.80;;;13.30;96.70;;;;;;4999610;28;20044;-74
2021/11/14 05:47:51;;;;;;;2.47;1.30;;;13.30;96.70;;;;;;5000470;28;20523;-74
2021/11/14 05:50:20;;;;;;;2.65;1.00;;;13.40;96.70;;;;;;4999634;28;20034;-75
2021/11/14 05:52:50;;;;;;;2.30;0.98;;;13.40;96.70;;;;;;4995610;28;20042;-75
2021/11/14 05:55:20;;;;;;;2.20;0.88;;;13.40;96.70;;;;;;4999216;28;20038;-74
2021/11/14 05:57:53;;;;;;;1.80;1.00;;;13.30;96.70;;;;;;4984572;28;20397;-75
2021/11/14 06:03:09;;;;;;;1.45;1.10;;;13.30;96.70;;;;;;4999374;28;20042;-75
2021/11/14 06:05:40;;;;;;;;;;;13.20;96.70;;;;;;5000919;28;20048;-74
2021/11/14 06:08:08;;;;;;;1.40;0.90;;;13.20;96.70;;;;;;5000939;28;19925;-75
2021/11/14 06:10:38;;;;;;;1.63;0.70;;;13.30;96.70;;;;;;5000074;28;20049;-75
2021/11/14 06:13:07;;;;;;;1.60;0.82;;;13.20;96.70;;;;;;4999115;28;20048;-75
2021/11/14 06:15:35;;;;;;;1.88;1.02;;;13.20;96.70;;;;;;5002045;28;21006;-74
2021/11/14 06:18:03;;;;;;;5.90;2.47;;;13.20;96.70;;;;;;5000823;28;20042;-75
2021/11/14 06:20:31;;;;;;;2.63;1.40;;;13.20;96.70;;;;;;4997912;28;20492;-74
2021/11/14 06:22:59;;;;;;;2.58;0.98;;;13.20;96.70;;;;;;5000288;28;20053;-74
2021/11/14 06:25:28;;;;;;;2.63;0.82;;;13.30;96.70;;;;;;5016173;28;20072;-74
2021/11/14 06:27:58;;;;;;;1.63;0.90;;;13.40;96.70;;;;;;5000283;28;20096;-74
2021/11/14 06:30:26;;;;;;;2.10;0.68;;;13.40;96.70;;;;;;5001663;28;20455;-75
2021/11/14 06:32:54;;;;;;;1.33;0.77;;;13.50;96.70;;;;;;5000715;28;20496;-75
2021/11/14 06:35:23;;;;;;;1.60;0.68;;;13.40;96.70;;;;;;4998790;28;20057;-74
2021/11/14 06:37:52;;;;;;;2.85;1.08;;;13.40;96.70;;;;;;4999705;28;20046;-75
2021/11/14 06:40:22;;;;;;;1.40;0.93;;;13.50;96.70;;;;;;4982672;28;20057;-75
2021/11/14 06:42:50;;;;;;;0.80;0.60;;;13.50;96.70;;;;;;4978485;28;20061;-75
2021/11/14 06:45:20;;;;;;;1.98;1.00;;;13.50;96.70;;;;;;4967520;28;20051;-75
2021/11/14 06:47:49;;;;;;;0.90;0.70;;;13.50;96.70;;;;;;4979056;28;20385;-75
2021/11/14 06:50:18;;;;;;;1.83;0.70;;;13.60;96.70;;;;;;4983974;28;20460;-76
2021/11/14 06:52:47;;;;;;;1.90;0.77;;;13.60;96.70;;;;;;4981758;28;20042;-76
2021/11/14 06:55:17;;;;;;;1.20;0.55;;;13.60;96.70;;;;;;4987624;28;20511;-75
2021/11/14 06:57:47;;;;;;;2.00;0.60;;;13.60;96.70;;;;;;4983325;28;20387;-76
2021/11/14 07:00:17;;;;;;;1.33;0.60;;;13.60;96.70;;;;;;4983915;28;20049;-76
2021/11/14 07:02:48;;;;;;;2.03;0.73;;;13.60;96.70;;;;;;4984692;28;20038;-76
2021/11/14 07:05:18;;;;;;;1.35;0.40;;;13.70;96.70;;;;;;4984347;28;20057;-77
2021/11/14 07:07:46;;;;;;;2.03;0.65;;;13.70;96.70;;;;;;4982705;28;20393;-76
2021/11/14 07:10:16;;;;;;;1.92;0.60;;;13.60;96.70;;;;;;4983753;28;20448;-76
2021/11/14 07:12:45;;;;;;;3.72;1.20;;;13.60;96.70;;;;;;4983604;28;20053;-77
2021/11/14 07:15:14;;;;;;;0.70;0.40;;;13.60;96.70;;;;;;4983322;28;20051;-76
2021/11/14 07:17:44;;;;;;;3.70;0.60;;;13.70;96.70;;;;;;4986272;28;20054;-77
2021/11/14 07:20:15;;;;;;;1.10;0.60;;;13.60;96.70;;;;;;4985919;28;20535;-76
2021/11/14 07:22:44;;;;;;;1.95;0.55;;;13.60;96.70;;;;;;4981081;28;20069;-77
2021/11/14 07:25:17;;;;;;;1.58;0.45;;;13.60;96.70;;;;;;4969279;28;20034;-76
2021/11/14 07:27:48;;;;;;;1.83;0.65;;;13.60;96.70;;;;;;4961579;28;20054;-76
2021/11/14 07:30:17;;;;;;;1.38;0.80;;;13.60;96.70;;;;;;4983833;28;20377;-76
2021/11/14 07:32:46;;;;;;;1.20;0.90;;;13.60;96.70;;;;;;4983219;28;20567;-76
2021/11/14 07:35:17;;;;;;;1.70;0.90;;;13.60;96.70;;;;;;4982498;28;20050;-77
2021/11/14 07:37:46;;;;;;;1.70;0.90;;;13.70;96.70;;;;;;4983565;28;20076;-77
2021/11/14 07:40:16;;;;;;;8.20;2.25;;;13.70;96.70;;;;;;4982699;28;20057;-77
2021/11/14 07:42:45;;;;;;;1.17;0.82;;;13.70;96.70;;;;;;5001750;28;20056;-77
2021/11/14 07:45:15;;;;;;;1.33;1.00;;;13.70;96.70;;;;;;5003020;28;20042;-77
2021/11/14 07:47:43;;;;;;;1.83;1.30;;;13.70;96.70;;;;;;5002558;28;20072;-77
2021/11/14 07:50:13;;;;;;;1.50;1.23;;;13.70;96.70;;;;;;5001497;28;20046;-77
2021/11/14 07:52:43;;;;;;;2.30;1.40;;;13.70;96.70;;;;;;5004153;28;20049;-77
2021/11/14 07:55:12;;;;;;;2.40;1.30;;;13.70;96.70;;;;;;5001544;28;20562;-76
2021/11/14 07:57:43;;;;;;;2.28;1.20;;;13.80;96.70;;;;;;5003839;28;20044;-77
2021/11/14 08:00:15;;;;;;;1.13;1.00;;;13.80;96.70;;;;;;4999840;28;20054;-77
2021/11/14 08:02:43;;;;;;;1.23;0.98;;;13.80;96.70;;;;;;5001473;28;20070;-77
2021/11/14 08:05:13;;;;;;;2.17;0.98;;;13.90;96.70;;;;;;4999672;28;20046;-76
2021/11/14 08:07:45;;;;;;;1.52;0.90;;;13.90;96.70;;;;;;5003723;28;20041;-77
2021/11/14 08:10:15;;;;;;;1.98;1.05;;;13.80;96.70;;;;;;4999364;28;20052;-77
2021/11/14 08:12:43;;;;;;;1.00;0.80;;;13.70;96.70;;;;;;4998798;28;20057;-77
2021/11/14 08:15:13;;;;;;;1.00;0.70;;;13.80;96.70;;;;;;5000955;28;20045;-77
2021/11/14 08:17:41;;;;;;;2.65;0.90;;;13.80;96.70;;;;;;5001428;28;20048;-77
2021/11/14 08:20:11;;;;;;;2.15;1.20;;;13.80;96.70;;;;;;5001175;28;20096;-78
2021/11/14 08:22:40;;;;;;;2.28;0.90;;;13.90;96.70;;;;;;5001718;28;20127;-77
2021/11/14 08:25:13;;;;;;;1.23;0.77;;;13.90;96.70;;;;;;4986073;28;20325;-77
2021/11/14 08:27:41;;;;;;;1.77;1.10;;;13.90;96.70;;;;;;4998713;28;20045;-77
2021/11/14 08:30:12;;;;;;;2.30;0.80;;;13.90;96.70;;;;;;4983468;28;20042;-76
2021/11/14 08:32:45;;;;;;;1.58;0.88;;;13.90;96.70;;;;;;5004079;28;20100;-77
2021/11/14 08:35:13;;;;;;;1.40;1.10;;;14.00;96.70;;;;;;4986568;28;20054;-77
2021/11/14 08:37:42;;;;;;;1.13;0.90;;;14.00;96.70;;;;;;4984081;28;20543;-77
2021/11/14 08:40:13;;;;;;;1.55;1.30;;;14.10;96.70;;;;;;5000370;28;20099;-77
2021/11/14 08:42:42;;;;;;;2.45;2.10;;;14.20;96.70;;;;;;5001096;28;20665;-77
2021/11/14 08:45:11;;;;;;;2.30;1.92;;;14.30;96.70;;;;;;4983263;28;20049;-77
2021/11/14 08:47:40;;;;;;;2.30;1.90;;;14.30;96.70;;;;;;4999361;28;20432;-75
2021/11/14 08:50:11;;;;;;;1.95;1.85;;;14.30;96.70;;;;;;5000334;28;20051;-77
2021/11/14 08:52:44;;;;;;;2.30;1.85;;;14.40;96.70;;;;;;4982516;28;20581;-76
2021/11/14 08:55:17;;;;;;;1.95;1.73;;;14.40;96.70;;;;;;5003197;28;20049;-75
2021/11/14 08:57:46;;;;;;;7.90;2.45;;;14.50;96.70;;;;;;4977989;28;20042;-76
2021/11/14 09:00:17;;;;;;;5.05;2.10;;;14.50;96.70;;;;;;5010768;28;20037;-78
2021/11/14 09:02:46;;;;;;;4.43;1.60;;;14.60;96.70;;;;;;4984831;28;20049;-79
2021/11/14 09:05:15;;;;;;;4.15;1.30;;;14.60;96.70;;;;;;4989271;28;20049;-78
2021/11/14 09:07:43;;;;;;;3.03;1.38;;;14.70;96.70;;;;;;4981334;28;20496;-77
2021/11/14 09:10:15;;;;;;;1.52;1.10;;;14.70;96.70;;;;;;4990554;28;20508;-77
2021/11/14 09:12:45;;;;;;;2.90;1.30;;;14.80;96.70;;;;;;5001084;28;20045;-76
2021/11/14 09:15:13;;;;;;;2.97;2.10;;;14.80;96.70;;;;;;4983708;28;20034;-79
2021/11/14 09:18:01;;;;;;;3.05;1.80;;;14.80;96.70;;;;;;4987571;28;20061;-79
2021/11/14 09:20:35;;;;;;;2.17;1.45;;;14.80;96.70;;;;;;4984487;28;20120;-76
2021/11/14 09:23:03;;;;;;;4.15;1.55;;;14.90;96.70;;;;;;5001473;28;20042;-80
2021/11/14 09:25:39;;;;;;;3.05;1.50;;;14.90;96.70;;;;;;5001219;28;20540;-77
2021/11/14 09:28:08;;;;;;;2.40;1.60;;;14.90;96.70;;;;;;5001294;28;20054;-78
2021/11/14 09:30:38;;;;;;;2.00;1.27;;;15.00;96.70;;;;;;4998720;28;20038;-76
2021/11/14 09:33:06;;;;;;;1.55;1.08;;;15.00;96.70;;;;;;4999803;28;20038;-76
2021/11/14 09:35:34;;;;;;;3.05;1.48;;;15.00;96.70;;;;;;5001277;28;20217;-76
2021/11/14 09:38:03;;;;;;;2.33;1.10;;;15.00;96.70;;;;;;5009184;28;20052;-76
2021/11/14 09:40:34;;;;;;;1.50;1.10;;;15.00;96.70;;;;;;4997665;28;20132;-76
2021/11/14 09:43:04;;;;;;;2.28;1.48;;;15.00;96.70;;;;;;4981121;28;20054;-76
2021/11/14 09:45:34;;;;;;;3.10;1.63;;;15.00;96.70;;;;;;4998016;28;20400;-76
2021/11/14 09:48:04;;;;;;;2.33;1.40;;;15.10;96.70;;;;;;5007364;28;20092;-74
2021/11/14 09:50:35;;;;;;;2.00;1.45;;;15.20;96.70;;;;;;4999647;28;20042;-75
2021/11/14 09:53:04;;;;;;;2.70;1.20;;;15.30;96.70;;;;;;4999416;28;20038;-76
2021/11/14 09:55:37;;;;;;;3.03;1.30;;;15.30;96.70;;;;;;4998516;28;20065;-75
2021/11/14 09:58:06;;;;;;;1.15;0.93;;;15.40;96.70;;;;;;5004485;28;20045;-75
2021/11/14 10:00:35;;;;;;;2.22;1.00;;;15.50;96.70;;;;;;4999107;28;20457;-75
2021/11/14 10:03:06;;;;;;;1.85;1.20;;;15.50;96.70;;;;;;5000403;28;20058;-75
2021/11/14 10:05:35;;;;;;;2.35;1.33;;;15.50;96.70;;;;;;4999127;28;20507;-74
2021/11/14 10:08:05;;;;;;;1.92;1.20;;;15.50;96.70;;;;;;5002211;28;20038;-74
2021/11/14 10:10:39;;;;;;;1.58;1.13;;;15.50;96.70;;;;;;5013914;28;20142;-76
2021/11/14 10:13:16;;;;;;;3.67;1.75;;;15.50;96.70;;;;;;4998675;28;20436;-76
2021/11/14 10:15:46;;;;;;;1.35;0.80;;;15.60;96.70;;;;;;4999489;28;20038;-77
2021/11/14 10:18:17;;;;;;;1.90;1.27;;;15.60;96.70;;;;;;4981989;28;20073;-76
2021/11/14 10:20:46;;;;;;;4.07;2.80;;;15.60;96.70;;;;;;5003371;28;20508;-75
2021/11/14 10:23:16;;;;;;;3.85;1.98;;;15.60;96.70;;;;;;5000486;28;20119;-73
2021/11/14 10:25:48;;;;;;;2.97;1.40;;;15.70;96.70;;;;;;5003617;28;20076;-75
2021/11/14 10:28:16;;;;;;;2.28;1.92;;;15.70;96.70;;;;;;4986896;28;20064;-74
2021/11/14 10:30:50;;;;;;;6.38;1.92;;;15.80;96.70;;;;;;4986021;28;20057;-74
2021/11/14 10:33:19;;;;;;;4.68;3.10;;;15.90;96.70;;;;;;5004872;28;20042;-75
2021/11/14 10:35:51;;;;;;;3.08;1.90;;;16.10;96.70;;;;;;5001531;28;20460;-75
2021/11/14 10:38:24;;;;;;;4.28;2.30;;;16.30;96.70;;;;;;5018651;28;20387;-76
2021/11/14 10:40:57;;;;;;;15.90;10.90;;;16.40;96.70;;;;;;5004388;28;20151;-74
2021/11/14 10:43:27;;;;;;;3.95;2.67;;;16.60;96.70;;;;;;5000737;28;20061;-75
2021/11/14 10:45:58;;;;;;;7.82;4.93;;;16.80;96.70;;;;;;5003351;28;20038;-75
2021/11/14 10:48:29;;;;;;;18.33;13.65;;;16.80;96.70;;;;;;4997523;28;20116;-76
2021/11/14 10:50:59;;;;;;;3.90;3.45;;;16.80;96.70;;;;;;5003967;28;20511;-75
2021/11/14 10:53:29;;;;;;;3.83;2.83;;;16.80;96.70;;;;;;4999830;28;20042;-75
2021/11/14 10:56:01;;;;;;;2.95;1.50;;;16.70;96.70;;;;;;5003806;28;20692;-76
2021/11/14 10:58:32;;;;;;;3.78;1.50;;;16.60;96.70;;;;;;4988438;28;20112;-75
2021/11/14 11:01:08;;;;;;;8.13;6.13;;;16.70;96.70;;;;;;5004454;28;20050;-76
2021/11/14 11:03:39;;;;;;;13.75;9.35;;;16.80;96.70;;;;;;5000150;28;20202;-77
2021/11/14 11:06:16;;;;;;;9.35;6.32;;;17.10;96.70;;;;;;5001711;28;20160;-75
2021/11/14 11:08:45;;;;;;;9.70;6.78;;;17.10;96.70;;;;;;5001509;28;20049;-75
2021/11/14 11:11:34;;;;;;;6.72;5.07;;;17.00;96.70;;;;;;5001148;28;20045;-75
2021/11/14 11:14:05;;;;;;;3.92;3.53;;;17.10;96.70;;;;;;4999681;28;20479;-76
2021/11/14 11:16:34;;;;;;;7.00;4.72;;;17.00;96.70;;;;;;5004644;28;20060;-74
2021/11/14 11:19:04;;;;;;;5.70;3.78;;;17.00;96.70;;;;;;4983797;28;20041;-74
2021/11/14 11:21:36;;;;;;;30.40;20.38;;;16.90;96.70;;;;;;5002093;28;20508;-75
2021/11/14 11:24:09;;;;;;;6.90;5.45;;;16.80;96.70;;;;;;4997690;28;20050;-74
2021/11/14 11:26:40;;;;;;;8.35;6.43;;;16.90;96.70;;;;;;5000567;28;20408;-74
2021/11/14 11:29:17;;;;;;;37.35;26.48;;;16.90;96.70;;;;;;4982963;28;20075;-74
2021/11/14 11:31:45;;;;;;;;;;;17.00;96.70;;;;;;4999323;28;20412;-74
2021/11/14 11:34:16;;;;;;;94.75;74.97;;;17.30;96.70;;;;;;4997347;28;19967;-75
2021/11/14 11:36:45;;;;;;;59.40;46.90;;;17.40;96.70;;;;;;4984647;28;20520;-75
2021/11/14 11:39:13;;;;;;;18.23;16.10;;;17.50;96.70;;;;;;5002122;28;20547;-76
2021/11/14 11:41:45;;;;;;;8.98;7.10;;;17.60;96.70;;;;;;4996846;28;20416;-75
2021/11/14 11:44:13;;;;;;;7.10;5.00;;;17.60;96.70;;;;;;5001539;28;20057;-75
2021/11/14 11:46:46;;;;;;;7.57;6.15;;;17.50;96.70;;;;;;5001390;28;21111;-76
2021/11/14 11:49:35;;;;;;;6.22;4.57;;;17.40;96.70;;;;;;5001877;28;20039;-76
2021/11/14 11:52:08;;;;;;;5.68;4.50;;;17.20;96.70;;;;;;4997120;28;20454;-75
2021/11/14 11:54:37;;;;;;;5.95;3.92;;;17.10;96.70;;;;;;4998532;28;20229;-75
2021/11/14 11:57:10;;;;;;;3.75;2.97;;;17.00;96.70;;;;;;4994856;28;20070;-74
2021/11/14 11:59:40;;;;;;;3.63;2.72;;;17.00;96.70;;;;;;4999009;28;20054;-76
2021/11/14 12:02:11;;;;;;;4.13;3.10;;;16.90;96.70;;;;;;4999868;28;20034;-76
2021/11/14 12:04:41;;;;;;;4.65;3.80;;;17.00;96.70;;;;;;5001837;28;20042;-76
2021/11/14 12:07:11;;;;;;;3.40;3.10;;;17.00;96.70;;;;;;4999128;28;20130;-77
2021/11/14 12:09:43;;;;;;;4.25;3.50;;;17.00;96.70;;;;;;5000583;28;20453;-75
2021/11/14 12:12:24;;;;;;;3.65;2.90;;;16.90;96.70;;;;;;5004270;28;20092;-76
2021/11/14 12:15:16;;;;;;;5.05;3.97;;;17.00;96.70;;;;;;5014547;28;20045;-76
2021/11/14 12:17:56;;;;;;;4.55;3.30;;;17.00;96.70;;;;;;4997011;28;20234;-77
2021/11/14 12:20:27;;;;;;;6.03;3.95;;;17.00;96.70;;;;;;4998376;28;20042;-76
2021/11/14 12:22:59;;;;;;;4.70;4.07;;;17.00;96.70;;;;;;5001615;28;20061;-76
2021/11/14 12:25:33;;;;;;;5.22;4.10;;;17.00;96.70;;;;;;4999117;28;20052;-77
2021/11/14 12:28:09;;;;;;;5.07;3.78;;;17.00;96.70;;;;;;5002129;28;20420;-77
2021/11/14 12:30:42;;;;;;;3.60;3.10;;;16.90;96.70;;;;;;4999515;28;20073;-78
2021/11/14 12:33:21;;;;;;;4.05;3.47;;;16.90;96.70;;;;;;5016891;28;20132;-76
2021/11/14 12:35:53;;;;;;;4.07;3.60;;;16.90;96.70;;;;;;5002255;28;20054;-77
2021/11/14 12:38:23;;;;;;;4.55;3.65;;;16.80;96.70;;;;;;5000720;28;20400;-77
2021/11/14 12:40:57;;;;;;;5.47;3.80;;;16.60;96.70;;;;;;4998436;28;20046;-76
2021/11/14 12:43:29;;;;;;;5.20;3.88;;;16.60;96.70;;;;;;5001254;28;20127;-76
2021/11/14 12:46:05;;;;;;;5.78;3.70;;;16.70;96.70;;;;;;4985523;28;20489;-76
2021/11/14 12:48:35;;;;;;;4.90;3.38;;;16.60;96.70;;;;;;4999866;28;20655;-76
2021/11/14 12:51:06;;;;;;;5.85;3.75;;;16.50;96.70;;;;;;4996879;28;20246;-75
2021/11/14 12:53:50;;;;;;;7.65;3.38;;;16.50;96.70;;;;;;4995861;28;20070;-76
2021/11/14 12:56:26;;;;;;;3.92;3.00;;;16.60;96.70;;;;;;4981313;28;20054;-78
2021/11/14 12:58:57;;;;;;;4.22;3.30;;;16.50;96.70;;;;;;4979788;28;20111;-76
2021/11/14 13:01:28;;;;;;;5.38;3.10;;;16.50;96.70;;;;;;4995778;28;20045;-76
2021/11/14 13:03:59;;;;;;;4.78;3.17;;;16.40;96.70;;;;;;4997597;28;20053;-77
2021/11/14 13:06:32;;;;;;;5.50;4.03;;;16.50;96.70;;;;;;4996453;28;20138;-76